Time;durP1;ratioP1;P1;durP2;ratioP2;P2;SDS_P1;SDS_P2;PMS_P1;PMS_P2;Temp;Humidity;BMP_temperature;BMP_pressure;BME280_temperature;BME280_humidity;BME280_pressure;Samples;Min_cycle;Max_cycle;Signal;HPM_P1;HPM_P2
2022/05/07 00:00:28;;;;;;;;;;;;;;;17.81;43.65;101579.81;5077171;28;1134;-61
2022/05/07 00:02:54;;;;;;;;;;;;;;;17.78;43.69;101576.50;5075721;28;809;-60
2022/05/07 00:05:20;;;;;;;;;;;;;;;17.83;43.43;101580.41;5085481;28;844;-62
2022/05/07 00:07:45;;;;;;;;;;;;;;;17.85;43.51;101576.28;5095960;28;2039;-63
2022/05/07 00:10:11;;;;;;;;;;;;;;;17.84;43.36;101574.63;5084542;28;1087;-63
2022/05/07 00:12:36;;;;;;;;;;;;;;;17.79;43.63;101572.69;5074416;28;1047;-63
2022/05/07 00:15:02;;;;;;;;;;;;;;;17.82;43.64;101570.47;5075834;28;1451;-63
2022/05/07 00:20:11;;;;;;;;;;;;;;;17.87;43.65;101568.59;5078925;28;902;-63
2022/05/07 00:22:37;;;;;;;;;;;;;;;17.81;43.52;101575.16;5082214;28;773;-63
2022/05/07 00:25:02;;;;;;;;;;;;;;;17.77;43.59;101571.28;5079334;28;959;-63
2022/05/07 00:27:28;;;;;;;;;;;;;;;17.79;43.47;101566.31;5079509;28;1973;-62
2022/05/07 00:29:53;;;;;;;;;;;;;;;17.79;43.52;101572.69;5079921;28;872;-61
2022/05/07 00:32:19;;;;;;;;;;;;;;;17.76;43.68;101578.69;5079998;28;902;-61
2022/05/07 00:34:44;;;;;;;;;;;;;;;17.75;43.71;101582.53;5080343;28;961;-61
2022/05/07 00:37:10;;;;;;;;;;;;;;;17.73;43.42;101579.22;5083815;28;766;-61
2022/05/07 00:39:35;;;;;;;;;;;;;;;17.72;43.29;101576.72;5079315;28;793;-61
2022/05/07 00:42:01;;;;;;;;;;;;;;;17.71;43.26;101583.31;5079776;28;750;-61
2022/05/07 00:44:27;;;;;;;;;;;;;;;17.69;43.14;101569.81;5078882;28;921;-61
2022/05/07 00:46:52;;;;;;;;;;;;;;;17.67;43.24;101574.78;5079343;28;750;-61
2022/05/07 00:49:18;;;;;;;;;;;;;;;17.58;43.06;101571.63;5078736;28;1977;-61
2022/05/07 00:51:43;;;;;;;;;;;;;;;17.57;42.90;101569.16;5098620;28;796;-61
2022/05/07 00:54:09;;;;;;;;;;;;;;;17.64;43.07;101563.44;5079813;28;1166;-62
2022/05/07 00:56:37;;;;;;;;;;;;;;;17.49;43.07;101547.63;5077594;28;1130;-61
2022/05/07 00:59:04;;;;;;;;;;;;;;;17.56;43.18;101562.03;5084250;28;1106;-61
2022/05/07 01:01:29;;;;;;;;;;;;;;;17.56;43.03;101560.09;5090281;28;1059;-61
2022/05/07 01:03:55;;;;;;;;;;;;;;;17.61;42.81;101564.78;5078187;28;843;-61
2022/05/07 01:06:22;;;;;;;;;;;;;;;17.58;42.77;101554.31;5077234;28;1608;-61
2022/05/07 01:08:48;;;;;;;;;;;;;;;17.58;42.76;101552.38;5076987;28;1910;-61
2022/05/07 01:11:14;;;;;;;;;;;;;;;17.60;42.95;101554.91;5077202;28;1232;-61
2022/05/07 01:13:40;;;;;;;;;;;;;;;17.61;43.02;101553.78;5078325;28;1145;-61
2022/05/07 01:16:06;;;;;;;;;;;;;;;17.59;42.81;101545.81;5077074;28;1095;-62
2022/05/07 01:18:35;;;;;;;;;;;;;;;17.56;42.87;101545.53;5078332;28;845;-62
2022/05/07 01:21:08;;;;;;;;;;;;;;;17.54;42.68;101547.69;5088717;28;1113;-61
2022/05/07 01:23:33;;;;;;;;;;;;;;;17.48;42.84;101549.56;5096215;28;1207;-61
2022/05/07 01:25:59;;;;;;;;;;;;;;;17.43;42.90;101550.34;5092053;28;1093;-61
2022/05/07 01:28:28;;;;;;;;;;;;;;;17.41;42.59;101555.25;5060447;28;1898;-62
2022/05/07 01:30:54;;;;;;;;;;;;;;;17.35;42.61;101552.72;5075951;28;1464;-62
2022/05/07 01:33:19;;;;;;;;;;;;;;;17.35;42.51;101550.81;5077800;28;905;-62
2022/05/07 01:35:45;;;;;;;;;;;;;;;17.32;42.57;101550.50;5089316;28;890;-62
2022/05/07 01:38:11;;;;;;;;;;;;;;;17.37;42.61;101554.13;5096192;28;1298;-61
2022/05/07 01:40:40;;;;;;;;;;;;;;;17.35;42.36;101555.47;5087363;28;1235;-61
2022/05/07 01:43:05;;;;;;;;;;;;;;;17.27;42.48;101548.53;5097892;28;735;-62
2022/05/07 01:45:31;;;;;;;;;;;;;;;17.26;42.20;101547.72;5097315;28;805;-61
2022/05/07 01:48:10;;;;;;;;;;;;;;;17.31;42.63;101537.88;5095760;28;1973;-61
2022/05/07 01:50:39;;;;;;;;;;;;;;;17.39;42.53;101538.22;5094472;28;1120;-62
2022/05/07 01:53:08;;;;;;;;;;;;;;;17.37;42.88;101545.06;5079020;28;1228;-61
2022/05/07 01:55:34;;;;;;;;;;;;;;;17.52;43.16;101547.94;5076412;28;1259;-61
2022/05/07 01:57:59;;;;;;;;;;;;;;;17.52;43.35;101544.38;5076057;28;1291;-62
2022/05/07 02:00:25;;;;;;;;;;;;;;;17.56;43.66;101540.03;5082163;28;1098;-62
2022/05/07 02:02:51;;;;;;;;;;;;;;;17.61;43.66;101540.03;5076046;28;1161;-62
2022/05/07 02:05:21;;;;;;;;;;;;;;;17.64;43.69;101534.00;5077214;28;830;-62
2022/05/07 02:07:46;;;;;;;;;;;;;;;17.61;44.05;101538.13;5075878;28;1898;-61
2022/05/07 02:10:14;;;;;;;;;;;;;;;17.62;44.02;101536.22;5076283;28;1292;-62
2022/05/07 02:12:40;;;;;;;;;;;;;;;17.64;43.76;101539.50;5075944;28;1223;-61
2022/05/07 02:15:06;;;;;;;;;;;;;;;17.63;43.83;101535.13;5075974;28;1126;-61
2022/05/07 02:17:33;;;;;;;;;;;;;;;17.67;43.80;101541.75;5080054;28;1113;-61
2022/05/07 02:19:58;;;;;;;;;;;;;;;17.68;43.83;101542.59;5077330;28;827;-61
2022/05/07 02:22:24;;;;;;;;;;;;;;;17.65;43.67;101546.69;5076193;28;1505;-61
2022/05/07 02:24:50;;;;;;;;;;;;;;;17.67;43.65;101551.91;5077145;28;841;-61
2022/05/07 02:27:21;;;;;;;;;;;;;;;17.62;43.76;101558.22;5075892;28;1435;-61
2022/05/07 02:29:46;;;;;;;;;;;;;;;17.64;43.94;101553.25;5076905;28;1910;-61
2022/05/07 02:32:13;;;;;;;;;;;;;;;17.62;43.84;101555.47;5075436;28;1080;-61
2022/05/07 02:34:42;;;;;;;;;;;;;;;17.68;43.86;101553.59;5075664;28;1125;-61
2022/05/07 02:37:16;;;;;;;;;;;;;;;17.66;43.68;101550.28;5076077;28;1102;-61
2022/05/07 02:39:47;;;;;;;;;;;;;;;17.66;43.76;101556.59;5075596;28;1362;-61
2022/05/07 02:45:00;;;;;;;;;;;;;;;17.63;43.72;101554.38;5076045;28;1112;-61
2022/05/07 02:47:25;;;;;;;;;;;;;;;17.63;43.82;101548.88;5076540;28;817;-62
2022/05/07 02:49:51;;;;;;;;;;;;;;;17.69;43.91;101550.56;5076861;28;1910;-62
2022/05/07 02:52:17;;;;;;;;;;;;;;;17.73;43.76;101546.19;5075473;28;741;-62
2022/05/07 02:54:43;;;;;;;;;;;;;;;17.75;44.02;101549.53;5076588;28;812;-62
2022/05/07 02:57:08;;;;;;;;;;;;;;;17.71;43.97;101551.16;5075761;28;1566;-62
2022/05/07 02:59:33;;;;;;;;;;;;;;;17.71;44.17;101545.66;5079514;28;1112;-62
2022/05/07 03:01:59;;;;;;;;;;;;;;;17.74;43.81;101558.88;5076542;28;829;-61
2022/05/07 03:04:25;;;;;;;;;;;;;;;17.79;43.96;101556.16;5075736;28;1222;-61
2022/05/07 03:06:50;;;;;;;;;;;;;;;17.79;44.17;101556.16;5076453;28;909;-61
2022/05/07 03:09:16;;;;;;;;;;;;;;;17.77;43.93;101558.34;5074841;28;1910;-62
2022/05/07 03:11:43;;;;;;;;;;;;;;;17.84;43.91;101540.78;5075722;28;1100;-61
2022/05/07 03:14:14;;;;;;;;;;;;;;;17.84;44.01;101538.88;5075414;28;1203;-65
2022/05/07 03:16:40;;;;;;;;;;;;;;;17.83;44.30;101541.88;5072198;28;1316;-61
2022/05/07 03:19:07;;;;;;;;;;;;;;;17.87;44.03;101541.09;5094248;28;810;-64
2022/05/07 03:21:33;;;;;;;;;;;;;;;17.86;44.00;101544.09;5076231;28;1112;-63
2022/05/07 03:23:58;;;;;;;;;;;;;;;17.83;44.08;101552.88;5075297;28;1121;-65
2022/05/07 03:26:24;;;;;;;;;;;;;;;17.83;44.33;101539.13;5075056;28;805;-64
2022/05/07 03:28:51;;;;;;;;;;;;;;;17.88;44.31;101537.25;5075151;28;1979;-64
2022/05/07 03:31:19;;;;;;;;;;;;;;;17.92;44.40;101540.31;5076171;28;865;-64
2022/05/07 03:33:46;;;;;;;;;;;;;;;17.92;44.22;101529.31;5078051;28;1117;-64
2022/05/07 03:36:12;;;;;;;;;;;;;;;17.96;44.27;101533.19;5078122;28;970;-64
2022/05/07 03:38:38;;;;;;;;;;;;;;;17.99;44.19;101537.34;5075203;28;1237;-64
2022/05/07 03:41:10;;;;;;;;;;;;;;;18.02;44.17;101534.91;5075068;28;1889;-64
2022/05/07 03:43:37;;;;;;;;;;;;;;;18.01;44.15;101541.50;5074603;28;1109;-62
2022/05/07 03:46:04;;;;;;;;;;;;;;;18.06;44.36;101538.78;5074703;28;1205;-66
2022/05/07 03:48:30;;;;;;;;;;;;;;;18.05;44.32;101537.13;5084942;28;1980;-66
2022/05/07 03:50:56;;;;;;;;;;;;;;;18.03;44.59;101539.28;5076779;28;1302;-64
2022/05/07 03:53:31;;;;;;;;;;;;;;;18.02;44.61;101537.66;5076990;28;841;-64
2022/05/07 03:56:07;;;;;;;;;;;;;;;18.03;44.42;101546.72;5078811;28;1302;-65
2022/05/07 03:58:35;;;;;;;;;;;;;;;18.16;44.50;101542.69;5079448;28;1121;-62
2022/05/07 04:01:00;;;;;;;;;;;;;;;18.13;44.55;101544.03;5078078;28;1113;-62
2022/05/07 04:03:26;;;;;;;;;;;;;;;18.12;44.57;101542.41;5078502;28;1464;-64
2022/05/07 04:05:55;;;;;;;;;;;;;;;18.11;44.76;101541.56;5078544;28;1194;-63
2022/05/07 04:08:23;;;;;;;;;;;;;;;18.13;44.85;101538.53;5078602;28;1909;-61
2022/05/07 04:10:49;;;;;;;;;;;;;;;18.11;44.56;101541.56;5079820;28;833;-63
2022/05/07 04:13:19;;;;;;;;;;;;;;;18.10;44.72;101545.41;5084043;28;1251;-63
2022/05/07 04:15:51;;;;;;;;;;;;;;;18.06;44.47;101538.78;5078491;28;1346;-64
2022/05/07 04:18:17;;;;;;;;;;;;;;;18.05;44.35;101539.06;5078247;28;1106;-63
2022/05/07 04:20:44;;;;;;;;;;;;;;;17.98;44.59;101541.19;5090688;28;1101;-64
2022/05/07 04:23:14;;;;;;;;;;;;;;;17.94;44.34;101540.91;5097935;28;1008;-63
2022/05/07 04:25:44;;;;;;;;;;;;;;;17.93;44.22;101537.28;5083766;28;1305;-63
2022/05/07 04:28:12;;;;;;;;;;;;;;;17.95;44.13;101548.06;5091280;28;1906;-63
2022/05/07 04:30:40;;;;;;;;;;;;;;;17.89;44.08;101549.06;5078386;28;1142;-63
2022/05/07 04:33:06;;;;;;;;;;;;;;;17.84;44.09;101560.03;5091021;28;1137;-62
2022/05/07 04:35:32;;;;;;;;;;;;;;;17.90;43.89;101561.75;5083444;28;1127;-63
2022/05/07 04:38:02;;;;;;;;;;;;;;;17.89;43.95;101568.34;5077905;28;1235;-57
2022/05/07 04:40:29;;;;;;;;;;;;;;;17.88;43.72;101566.66;5097410;28;1170;-58
2022/05/07 04:42:56;;;;;;;;;;;;;;;17.85;43.68;101565.28;5097712;28;1644;-57
2022/05/07 04:45:22;;;;;;;;;;;;;;;17.82;43.90;101563.03;5096916;28;1628;-58
2022/05/07 04:47:59;;;;;;;;;;;;;;;17.82;43.77;101556.72;5097187;28;1909;-57
2022/05/07 04:50:30;;;;;;;;;;;;;;;17.79;43.75;101566.31;5088519;28;1174;-57
2022/05/07 04:53:18;;;;;;;;;;;;;;;17.85;43.89;101559.78;5078777;28;1827;-57
2022/05/07 04:55:44;;;;;;;;;;;;;;;17.86;43.79;101566.94;5077923;28;1158;-57
2022/05/07 04:58:10;;;;;;;;;;;;;;;17.88;43.68;101569.41;5074287;28;1362;-57
2022/05/07 05:00:39;;;;;;;;;;;;;;;17.85;43.84;101569.94;5079647;28;1128;-57
2022/05/07 05:03:13;;;;;;;;;;;;;;;17.85;43.82;101575.44;5077356;28;1300;-57
2022/05/07 05:05:41;;;;;;;;;;;;;;;17.84;43.74;101568.28;5077305;28;1342;-57
2022/05/07 05:08:18;;;;;;;;;;;;;;;17.92;43.55;101576.94;5078372;28;1902;-56
2022/05/07 05:10:45;;;;;;;;;;;;;;;17.89;43.66;101582.09;5078726;28;816;-57
2022/05/07 05:13:11;;;;;;;;;;;;;;;17.87;43.92;101573.28;5077281;28;1155;-56
2022/05/07 05:15:45;;;;;;;;;;;;;;;17.88;43.74;101574.91;5082744;28;1176;-56
2022/05/07 05:18:33;;;;;;;;;;;;;;;17.93;43.58;101575.00;5070171;28;1308;-56
2022/05/07 05:20:59;;;;;;;;;;;;;;;17.88;43.75;101574.91;5078276;28;1165;-56
2022/05/07 05:23:30;;;;;;;;;;;;;;;17.86;44.14;101579.88;5077366;28;1391;-56
2022/05/07 05:25:57;;;;;;;;;;;;;;;17.88;44.12;101585.91;5076982;28;1581;-56
2022/05/07 05:28:30;;;;;;;;;;;;;;;17.90;44.18;101589.25;5081553;28;2104;-56
2022/05/07 05:30:59;;;;;;;;;;;;;;;17.94;43.86;101579.41;5076922;28;1296;-56
2022/05/07 05:33:26;;;;;;;;;;;;;;;17.87;44.33;101579.59;5078223;28;777;-56
2022/05/07 05:36:10;;;;;;;;;;;;;;;17.95;44.19;101572.84;5088817;28;1121;-56
2022/05/07 05:38:39;;;;;;;;;;;;;;;17.94;44.53;101584.91;5095907;28;1203;-57
2022/05/07 05:41:06;;;;;;;;;;;;;;;17.94;44.56;101584.91;5089921;28;1161;-56
2022/05/07 05:43:35;;;;;;;;;;;;;;;17.97;44.38;101594.56;5076313;28;1277;-56
2022/05/07 05:46:01;;;;;;;;;;;;;;;17.93;44.42;101594.25;5077913;28;815;-57
2022/05/07 05:48:29;;;;;;;;;;;;;;;17.94;44.32;101596.75;5077692;28;1973;-56
2022/05/07 05:50:56;;;;;;;;;;;;;;;17.96;44.38;101599.22;5076385;28;1258;-56
2022/05/07 05:53:22;;;;;;;;;;;;;;;17.95;44.55;101603.09;5079389;28;1233;-56
2022/05/07 05:55:50;;;;;;;;;;;;;;;17.97;44.63;101602.84;5076798;28;1500;-57
2022/05/07 05:58:21;;;;;;;;;;;;;;;17.94;44.66;101601.44;5076845;28;1277;-57
2022/05/07 06:00:47;;;;;;;;;;;;;;;17.93;44.50;101600.59;5076405;28;1126;-60
2022/05/07 06:03:13;;;;;;;;;;;;;;;17.94;44.29;101606.94;5075951;28;1531;-60
2022/05/07 06:05:38;;;;;;;;;;;;;;;17.92;44.37;101609.09;5077330;28;887;-60
2022/05/07 06:08:04;;;;;;;;;;;;;;;17.90;44.73;101608.53;5077882;28;1922;-60
2022/05/07 06:10:34;;;;;;;;;;;;;;;17.98;44.68;101610.81;5075978;28;1104;-59
2022/05/07 06:13:00;;;;;;;;;;;;;;;17.90;44.63;101611.28;5075435;28;1148;-58
2022/05/07 06:15:26;;;;;;;;;;;;;;;17.94;44.70;101607.75;5075801;28;1109;-58
2022/05/07 06:17:51;;;;;;;;;;;;;;;17.95;44.74;101608.59;5074953;28;1109;-58
2022/05/07 06:20:18;;;;;;;;;;;;;;;17.93;44.84;101610.78;5088976;28;1146;-58
2022/05/07 06:22:48;;;;;;;;;;;;;;;17.94;45.00;101615.19;5095183;28;1405;-57
2022/05/07 06:28:06;;;;;;;;;;;;;;;17.97;44.61;101611.91;5095184;28;1914;-56
2022/05/07 06:30:38;;;;;;;;;;;;;;;17.92;44.56;101606.34;5095223;28;1231;-58
2022/05/07 06:33:07;;;;;;;;;;;;;;;17.92;44.61;101611.84;5079490;28;1198;-58
2022/05/07 06:35:38;;;;;;;;;;;;;;;17.87;44.57;101606.28;5081033;28;1385;-58
2022/05/07 06:38:10;;;;;;;;;;;;;;;17.90;44.55;101611.28;5075697;28;1161;-59
2022/05/07 06:40:40;;;;;;;;;;;;;;;17.86;44.53;101610.94;5075524;28;1232;-57
2022/05/07 06:43:06;;;;;;;;;;;;;;;17.91;44.48;101615.72;5075300;28;1331;-58
2022/05/07 06:45:49;;;;;;;;;;;;;;;17.90;44.44;101611.28;5078426;28;1158;-58
2022/05/07 06:48:15;;;;;;;;;;;;;;;17.94;44.76;101607.75;5075868;28;1910;-57
2022/05/07 06:50:41;;;;;;;;;;;;;;;17.89;44.60;101612.34;5078538;28;1055;-57
2022/05/07 06:53:08;;;;;;;;;;;;;;;17.94;44.74;101621.50;5075574;28;1183;-57
2022/05/07 06:55:54;;;;;;;;;;;;;;;17.96;44.76;101615.75;5076887;28;789;-57
2022/05/07 06:58:19;;;;;;;;;;;;;;;17.93;44.99;101627.28;5074792;28;1266;-57
2022/05/07 07:00:45;;;;;;;;;;;;;;;17.96;44.67;101615.75;5076348;28;885;-58
2022/05/07 07:03:10;;;;;;;;;;;;;;;17.89;44.86;101609.59;5096452;28;979;-57
2022/05/07 07:05:36;;;;;;;;;;;;;;;17.92;44.83;101614.59;5082364;28;757;-58
2022/05/07 07:08:01;;;;;;;;;;;;;;;17.94;44.87;101606.94;5076578;28;1902;-58
2022/05/07 07:10:27;;;;;;;;;;;;;;;17.95;45.04;101611.34;5079044;28;808;-57
2022/05/07 07:12:52;;;;;;;;;;;;;;;18.00;44.92;101610.56;5076777;28;1032;-58
2022/05/07 07:15:18;;;;;;;;;;;;;;;17.96;45.09;101604.75;5076769;28;781;-57
2022/05/07 07:17:44;;;;;;;;;;;;;;;17.99;44.87;101608.88;5076619;28;901;-58
2022/05/07 07:20:09;;;;;;;;;;;;;;;17.97;44.93;101605.59;5079532;28;843;-58
2022/05/07 07:22:36;;;;;;;;;;;;;;;17.93;45.04;101608.84;5095063;28;797;-59
2022/05/07 07:25:05;;;;;;;;;;;;;;;17.99;44.84;101615.22;5078283;28;825;-58
2022/05/07 07:27:31;;;;;;;;;;;;;;;17.97;44.90;101605.59;5076872;28;843;-56
2022/05/07 07:29:56;;;;;;;;;;;;;;;17.99;45.17;101609.72;5080271;28;1976;-57
2022/05/07 07:32:22;;;;;;;;;;;;;;;18.01;44.86;101607.53;5080776;28;791;-56
2022/05/07 07:34:48;;;;;;;;;;;;;;;17.97;45.29;101605.59;5079772;28;894;-56
2022/05/07 07:37:14;;;;;;;;;;;;;;;17.99;44.83;101601.44;5082963;28;903;-56
2022/05/07 07:39:39;;;;;;;;;;;;;;;17.96;45.06;101610.25;5080164;28;877;-55
2022/05/07 07:42:05;;;;;;;;;;;;;;;17.94;44.84;101616.00;5079889;28;829;-56
2022/05/07 07:44:30;;;;;;;;;;;;;;;17.97;44.76;101611.09;5080327;28;845;-55
2022/05/07 07:49:40;;;;;;;;;;;;;;;17.94;44.77;101624.25;5085628;28;1929;-56
2022/05/07 07:52:05;;;;;;;;;;;;;;;17.96;44.84;101618.50;5079879;28;869;-56
2022/05/07 07:54:32;;;;;;;;;;;;;;;17.92;44.53;101631.97;5079585;28;806;-55
2022/05/07 07:57:02;;;;;;;;;;;;;;;17.98;44.57;101632.84;5080241;28;778;-56
2022/05/07 07:59:27;;;;;;;;;;;;;;;17.91;44.58;101637.72;5086082;28;1008;-56
2022/05/07 08:01:53;;;;;;;;;;;;;;;17.87;44.72;101642.88;5081510;28;809;-56
2022/05/07 08:04:19;;;;;;;;;;;;;;;17.88;44.66;101639.06;5082901;28;1008;-56
2022/05/07 08:11:39;;;;;;;;;;;;;;;17.89;44.59;101637.13;5099505;28;742;-56
2022/05/07 08:12:14;;;;;;;;;;;;;;;17.86;44.73;101643.16;5099039;28;746;-56
2022/05/07 08:14:40;;;;;;;;;;;;;;;17.87;44.37;101631.88;5085657;28;1012;-56
2022/05/07 08:17:06;;;;;;;;;;;;;;;17.88;44.21;101644.56;5079526;28;770;-55
2022/05/07 08:19:32;;;;;;;;;;;;;;;17.84;44.31;101645.31;5079415;28;870;-56
2022/05/07 08:21:57;;;;;;;;;;;;;;;17.86;44.21;101643.16;5099142;28;821;-56
2022/05/07 08:24:23;;;;;;;;;;;;;;;17.84;44.14;101645.31;5099052;28;829;-58
2022/05/07 08:26:48;;;;;;;;;;;;;;;17.83;44.13;101636.25;5089960;28;833;-56
2022/05/07 08:29:14;;;;;;;;;;;;;;;17.82;44.28;101637.31;5079385;28;1897;-56
2022/05/07 08:31:41;;;;;;;;;;;;;;;17.88;44.24;101639.06;5078897;28;833;-56
2022/05/07 08:34:07;;;;;;;;;;;;;;;17.84;43.92;101635.16;5079046;28;868;-56
2022/05/07 08:36:32;;;;;;;;;;;;;;;17.77;44.42;101640.88;5078958;28;750;-56
2022/05/07 08:38:58;;;;;;;;;;;;;;;17.78;44.31;101636.19;5081711;28;789;-56
2022/05/07 08:41:23;;;;;;;;;;;;;;;17.83;43.79;101629.91;5080459;28;849;-56
2022/05/07 08:43:50;;;;;;;;;;;;;;;17.83;44.07;101632.66;5079374;28;785;-56
2022/05/07 08:46:16;;;;;;;;;;;;;;;17.75;44.05;101632.06;5079525;28;848;-55
2022/05/07 08:48:42;;;;;;;;;;;;;;;17.80;43.75;101631.28;5078580;28;2362;-56
2022/05/07 08:51:07;;;;;;;;;;;;;;;17.76;43.85;101630.94;5079231;28;1037;-55
2022/05/07 08:53:33;;;;;;;;;;;;;;;17.76;43.87;101628.19;5078931;28;849;-56
2022/05/07 08:55:59;;;;;;;;;;;;;;;17.73;43.94;101634.22;5078686;28;895;-55
2022/05/07 08:58:25;;;;;;;;;;;;;;;17.74;43.98;101637.78;5080055;28;1055;-56
2022/05/07 09:00:50;;;;;;;;;;;;;;;17.79;43.63;101627.69;5082296;28;1499;-55
2022/05/07 09:03:16;;;;;;;;;;;;;;;17.72;43.71;101632.56;5078895;28;822;-55
2022/05/07 09:05:42;;;;;;;;;;;;;;;17.75;43.79;101628.47;5081075;28;1243;-55
2022/05/07 09:08:08;;;;;;;;;;;;;;;17.73;43.97;101631.47;5078986;28;1972;-57
2022/05/07 09:10:34;;;;;;;;;;;;;;;17.75;43.72;101633.97;5078621;28;912;-56
2022/05/07 09:13:06;;;;;;;;;;;;;;;17.79;43.84;101643.34;5078664;28;1025;-55
2022/05/07 09:15:32;;;;;;;;;;;;;;;17.74;43.95;101643.28;5077164;28;1318;-55
2022/05/07 09:17:57;;;;;;;;;;;;;;;17.75;43.88;101637.56;5077673;28;813;-55
2022/05/07 09:20:23;;;;;;;;;;;;;;;17.71;44.05;101641.91;5078175;28;843;-55
2022/05/07 09:22:49;;;;;;;;;;;;;;;17.72;43.79;101640.00;5078818;28;859;-56
2022/05/07 09:25:21;;;;;;;;;;;;;;;17.69;43.91;101624.84;5078105;28;821;-56
2022/05/07 09:27:47;;;;;;;;;;;;;;;17.71;43.84;101635.56;5078384;28;1965;-55
2022/05/07 09:30:12;;;;;;;;;;;;;;;17.72;43.67;101631.75;5082566;28;772;-57
2022/05/07 09:32:38;;;;;;;;;;;;;;;17.71;43.94;101633.66;5077880;28;877;-56
2022/05/07 09:37:58;;;;;;;;;;;;;;;17.73;43.72;101623.22;5077817;28;853;-57
2022/05/07 09:40:23;;;;;;;;;;;;;;;17.73;43.82;101628.72;5077845;28;739;-57
2022/05/07 09:42:49;;;;;;;;;;;;;;;17.77;44.01;101638.13;5077394;28;853;-58
2022/05/07 09:45:14;;;;;;;;;;;;;;;17.74;43.93;101629.53;5076358;28;826;-56
2022/05/07 09:47:40;;;;;;;;;;;;;;;17.75;43.89;101623.81;5076577;28;955;-57
2022/05/07 09:50:20;;;;;;;;;;;;;;;17.68;43.87;101625.09;5086904;28;1910;-57
2022/05/07 09:58:15;;;;;;;;;;;;;;;17.68;43.85;101627.84;5077773;28;738;-56
2022/05/07 10:00:43;;;;;;;;;;;;;;;17.77;43.97;101624.38;5077470;28;925;-57
2022/05/07 10:03:10;;;;;;;;;;;;;;;17.69;43.95;101627.59;5077439;28;829;-58
2022/05/07 10:05:38;;;;;;;;;;;;;;;17.72;43.97;101623.50;5082917;28;863;-56
2022/05/07 10:08:07;;;;;;;;;;;;;;;17.74;43.88;101624.03;5077150;28;1977;-56
2022/05/07 10:10:36;;;;;;;;;;;;;;;17.74;43.85;101630.41;5077026;28;854;-56
2022/05/07 10:13:01;;;;;;;;;;;;;;;17.69;43.98;101616.59;5077156;28;1100;-57
2022/05/07 10:15:27;;;;;;;;;;;;;;;17.69;43.98;101616.59;5077562;28;772;-57
2022/05/07 10:18:01;;;;;;;;;;;;;;;17.70;44.15;101617.44;5077532;28;781;-59
2022/05/07 10:20:32;;;;;;;;;;;;;;;17.71;44.09;101614.41;5077454;28;906;-57
2022/05/07 10:22:58;;;;;;;;;;;;;;;17.72;44.04;101612.47;5088467;28;869;-58
2022/05/07 10:25:23;;;;;;;;;;;;;;;17.76;43.91;101614.44;5093691;28;1458;-58
2022/05/07 10:27:49;;;;;;;;;;;;;;;17.73;43.85;101612.22;5096034;28;1902;-58
2022/05/07 10:30:16;;;;;;;;;;;;;;;17.74;43.98;101604.78;5096895;28;839;-57
2022/05/07 10:32:45;;;;;;;;;;;;;;;17.77;43.73;101620.78;5089671;28;1055;-57
2022/05/07 10:35:10;;;;;;;;;;;;;;;17.69;44.07;101613.81;5081327;28;832;-57
2022/05/07 10:37:42;;;;;;;;;;;;;;;17.68;43.75;101617.66;5076841;28;813;-57
2022/05/07 10:40:11;;;;;;;;;;;;;;;17.63;43.64;101612.13;5076497;28;830;-56
2022/05/07 10:42:39;;;;;;;;;;;;;;;17.64;43.68;101616.53;5076390;28;837;-54
2022/05/07 10:45:20;;;;;;;;;;;;;;;17.63;43.69;101614.88;5076926;28;770;-56
2022/05/07 10:47:54;;;;;;;;;;;;;;;17.60;43.62;101620.91;5076275;28;924;-57
2022/05/07 10:50:21;;;;;;;;;;;;;;;17.59;43.54;101608.25;5083096;28;823;-55
2022/05/07 10:52:53;;;;;;;;;;;;;;;17.57;43.44;101605.75;5076940;28;817;-56
2022/05/07 10:55:18;;;;;;;;;;;;;;;17.61;43.29;101606.91;5089290;28;830;-56
2022/05/07 10:57:45;;;;;;;;;;;;;;;17.61;43.36;101606.03;5094513;28;1230;-57
2022/05/07 11:00:13;;;;;;;;;;;;;;;17.61;43.30;101608.78;5089873;28;922;-55
2022/05/07 11:02:40;;;;;;;;;;;;;;;17.64;43.30;101605.53;5096054;28;837;-56
2022/05/07 11:05:06;;;;;;;;;;;;;;;17.60;43.60;101607.97;5089296;28;890;-59
2022/05/07 11:07:32;;;;;;;;;;;;;;;17.60;43.33;101607.16;5076566;28;1376;-57
2022/05/07 11:09:58;;;;;;;;;;;;;;;17.61;43.36;101595.03;5076279;28;1909;-57
2022/05/07 11:12:25;;;;;;;;;;;;;;;17.57;43.38;101599.41;5076159;28;777;-56
2022/05/07 11:14:51;;;;;;;;;;;;;;;17.57;43.45;101597.50;5075883;28;1000;-54
2022/05/07 11:17:27;;;;;;;;;;;;;;;17.55;43.58;101590.59;5076198;28;890;-54
2022/05/07 11:19:52;;;;;;;;;;;;;;;17.57;43.27;101593.91;5078783;28;890;-54
2022/05/07 11:22:18;;;;;;;;;;;;;;;17.53;43.56;101598.25;5076288;28;1028;-59
2022/05/07 11:24:43;;;;;;;;;;;;;;;17.56;43.27;101606.84;5079578;28;1195;-56
2022/05/07 11:27:11;;;;;;;;;;;;;;;17.56;43.39;101600.53;5077050;28;866;-55
2022/05/07 11:29:36;;;;;;;;;;;;;;;17.55;43.38;101601.59;5076315;28;1930;-56
2022/05/07 11:32:04;;;;;;;;;;;;;;;17.53;43.42;101601.00;5074572;28;844;-56
2022/05/07 11:34:31;;;;;;;;;;;;;;;17.55;43.31;101604.34;5076630;28;938;-56
2022/05/07 11:36:56;;;;;;;;;;;;;;;17.49;43.29;101602.63;5075852;28;904;-56
2022/05/07 11:39:22;;;;;;;;;;;;;;;17.56;43.33;101600.53;5075769;28;828;-57
2022/05/07 11:41:55;;;;;;;;;;;;;;;17.54;43.63;101608.19;5076102;28;909;-52
2022/05/07 11:47:22;;;;;;;;;;;;;;;17.52;43.50;101604.88;5090187;28;1169;-56
2022/05/07 11:49:59;;;;;;;;;;;;;;;17.53;43.43;101612.00;5088915;28;1922;-56
2022/05/07 11:52:27;;;;;;;;;;;;;;;17.50;43.42;101607.88;5078335;28;918;-55
2022/05/07 11:54:52;;;;;;;;;;;;;;;17.52;43.29;101602.13;5075736;28;876;-56
2022/05/07 11:57:27;;;;;;;;;;;;;;;17.49;43.36;101605.38;5075929;28;739;-55
2022/05/07 11:59:52;;;;;;;;;;;;;;;17.50;43.21;101590.53;5076526;28;746;-55
2022/05/07 12:02:18;;;;;;;;;;;;;;;17.49;43.37;101594.38;5075857;28;785;-54
2022/05/07 12:04:43;;;;;;;;;;;;;;;17.45;43.27;101594.91;5077598;28;949;-55
2022/05/07 12:07:12;;;;;;;;;;;;;;;17.45;43.24;101594.09;5076422;28;895;-56
2022/05/07 12:09:37;;;;;;;;;;;;;;;17.44;43.30;101598.72;5075957;28;1975;-55
2022/05/07 12:12:03;;;;;;;;;;;;;;;17.44;43.33;101592.41;5075774;28;861;-56
2022/05/07 12:14:29;;;;;;;;;;;;;;;17.47;43.39;101583.63;5076066;28;1123;-55
2022/05/07 12:19:39;;;;;;;;;;;;;;;17.50;43.29;101579.53;5085043;28;860;-54
2022/05/07 12:30:16;;;;;;;;;;;;;;;17.44;43.54;101584.97;5078823;28;1940;-53
2022/05/07 12:32:44;;;;;;;;;;;;;;;17.49;43.22;101583.38;5078978;28;834;-55
2022/05/07 12:35:12;;;;;;;;;;;;;;;17.44;43.37;101593.22;5085459;28;878;-55
2022/05/07 12:37:38;;;;;;;;;;;;;;;17.45;43.48;101581.16;5078981;28;920;-55
2022/05/07 12:40:04;;;;;;;;;;;;;;;17.49;43.62;101589.72;5079148;28;837;-55
2022/05/07 12:42:30;;;;;;;;;;;;;;;17.44;43.44;101581.41;5083527;28;849;-55
2022/05/07 12:44:55;;;;;;;;;;;;;;;17.48;43.47;101577.06;5079074;28;990;-56
2022/05/07 12:47:21;;;;;;;;;;;;;;;17.48;43.53;101581.75;5078705;28;982;-54
2022/05/07 12:49:46;;;;;;;;;;;;;;;17.44;43.42;101573.97;5081589;28;1909;-55
2022/05/07 12:52:12;;;;;;;;;;;;;;;17.45;43.29;101578.41;5079036;28;781;-56
2022/05/07 12:54:37;;;;;;;;;;;;;;;17.47;43.23;101571.81;5078078;28;856;-56
2022/05/07 12:57:04;;;;;;;;;;;;;;;17.49;43.41;101572.38;5078682;28;889;-56
2022/05/07 12:59:30;;;;;;;;;;;;;;;17.45;43.40;101572.91;5078679;28;865;-54
2022/05/07 13:01:57;;;;;;;;;;;;;;;17.41;43.33;101569.00;5078304;28;873;-55
2022/05/07 13:04:24;;;;;;;;;;;;;;;17.40;43.42;101566.53;5080671;28;1048;-55
2022/05/07 13:06:51;;;;;;;;;;;;;;;17.44;43.26;101568.47;5082729;28;789;-55
2022/05/07 13:09:16;;;;;;;;;;;;;;;17.42;43.25;101556.13;5078323;28;1897;-57
2022/05/07 13:11:42;;;;;;;;;;;;;;;17.40;43.23;101556.38;5078554;28;919;-55
2022/05/07 13:14:07;;;;;;;;;;;;;;;17.43;43.25;101549.50;5078296;28;1197;-56
2022/05/07 13:16:35;;;;;;;;;;;;;;;17.44;43.20;101560.25;5076299;28;1148;-56
2022/05/07 13:19:00;;;;;;;;;;;;;;;17.43;43.32;101558.59;5078239;28;877;-55
2022/05/07 13:21:26;;;;;;;;;;;;;;;17.41;43.30;101559.94;5078352;28;897;-56
2022/05/07 13:23:51;;;;;;;;;;;;;;;17.44;43.44;101563.00;5078530;28;842;-56
2022/05/07 13:26:16;;;;;;;;;;;;;;;17.42;43.39;101559.69;5078271;28;993;-56